createdAt,value
2023-03-10T00:02:21.007Z,3.88
2023-03-10T00:04:53.539Z,3.97
2023-03-10T00:07:20.610Z,4.07
2023-03-10T00:09:47.071Z,3.65
2023-03-10T00:12:13.873Z,3.88
2023-03-10T00:14:40.528Z,4.22
2023-03-10T00:17:07.502Z,4.32
2023-03-10T00:19:34.023Z,4.00
2023-03-10T00:22:00.733Z,5.00
2023-03-10T00:24:27.200Z,6.13
2023-03-10T00:26:53.786Z,5.60
2023-03-10T00:29:23.146Z,5.43
2023-03-10T00:31:49.688Z,5.50
2023-03-10T00:34:16.175Z,5.15
2023-03-10T00:36:42.775Z,5.15
2023-03-10T00:39:11.790Z,4.68
2023-03-10T00:41:39.297Z,4.78
2023-03-10T00:44:06.760Z,4.57
2023-03-10T00:46:34.511Z,4.75
2023-03-10T00:49:01.047Z,4.60
2023-03-10T00:51:27.827Z,4.07
2023-03-10T00:53:54.904Z,4.13
2023-03-10T00:56:23.198Z,4.30
2023-03-10T00:58:53.750Z,3.65
2023-03-10T01:01:26.441Z,3.90
2023-03-10T01:03:54.302Z,4.20
2023-03-10T01:06:20.992Z,3.78
2023-03-10T01:08:47.600Z,3.65
2023-03-10T01:11:18.537Z,3.22
2023-03-10T01:13:47.049Z,3.35
2023-03-10T01:16:13.820Z,3.10
2023-03-10T01:18:40.516Z,3.67
2023-03-10T01:21:07.558Z,3.33
2023-03-10T01:23:34.984Z,3.00
2023-03-10T01:26:01.553Z,3.30
2023-03-10T01:28:28.637Z,3.88
2023-03-10T01:30:56.294Z,3.60
2023-03-10T01:33:23.028Z,3.80
2023-03-10T01:35:49.616Z,3.53
2023-03-10T01:38:17.056Z,3.80
2023-03-10T01:40:47.907Z,4.07
2023-03-10T01:43:20.960Z,3.75
2023-03-10T01:45:47.691Z,3.55
2023-03-10T01:48:17.158Z,3.40
2023-03-10T01:50:44.679Z,3.85
2023-03-10T01:53:12.990Z,3.85
2023-03-10T01:55:42.165Z,3.55
2023-03-10T01:58:08.893Z,4.03
2023-03-10T02:00:40.783Z,4.55
2023-03-10T02:03:18.416Z,4.20
2023-03-10T02:05:50.428Z,4.00
2023-03-10T02:08:18.207Z,4.30
2023-03-10T02:10:45.217Z,3.75
2023-03-10T02:13:11.873Z,3.70
2023-03-10T02:15:39.186Z,3.90
2023-03-10T02:18:08.257Z,3.88
2023-03-10T02:20:45.520Z,4.15
2023-03-10T02:23:15.065Z,3.30
2023-03-10T02:25:53.579Z,3.33
2023-03-10T02:28:20.529Z,3.17
2023-03-10T02:30:48.602Z,3.53
2023-03-10T02:33:20.430Z,3.03
2023-03-10T02:35:47.129Z,4.32
2023-03-10T02:38:19.424Z,3.03
2023-03-10T02:40:47.284Z,2.90
2023-03-10T02:43:28.527Z,3.00
2023-03-10T02:46:03.100Z,2.85
2023-03-10T02:48:35.150Z,2.72
2023-03-10T02:51:09.301Z,2.28
2023-03-10T02:53:36.248Z,2.50
2023-03-10T02:56:02.977Z,3.33
2023-03-10T02:58:33.267Z,3.10
2023-03-10T03:01:01.189Z,3.03
2023-03-10T03:03:28.561Z,2.50
2023-03-10T03:05:55.164Z,3.25
2023-03-10T03:08:22.077Z,2.50
2023-03-10T03:10:48.701Z,2.67
2023-03-10T03:13:15.519Z,2.40
2023-03-10T03:15:42.201Z,2.33
2023-03-10T03:18:08.931Z,2.95
2023-03-10T03:20:37.819Z,2.53
2023-03-10T03:23:06.163Z,2.28
2023-03-10T03:25:35.113Z,2.20
2023-03-10T03:28:02.017Z,2.40
2023-03-10T03:30:29.132Z,2.17
2023-03-10T03:32:57.965Z,2.60
2023-03-10T03:35:27.986Z,2.35
2023-03-10T03:37:55.814Z,2.40
2023-03-10T03:40:24.941Z,2.17
2023-03-10T03:42:52.727Z,2.00
2023-03-10T03:45:21.245Z,1.92
2023-03-10T03:47:48.344Z,1.98
2023-03-10T03:50:16.017Z,2.03
2023-03-10T03:52:43.373Z,2.35
2023-03-10T03:55:13.626Z,2.20
2023-03-10T03:57:40.552Z,2.38
2023-03-10T04:00:08.368Z,1.95
2023-03-10T04:02:39.409Z,2.40
2023-03-10T04:05:08.088Z,2.05
2023-03-10T04:07:35.372Z,2.03
2023-03-10T04:10:03.871Z,2.20
2023-03-10T04:12:30.447Z,2.00
2023-03-10T04:14:58.311Z,2.78
2023-03-10T04:17:24.915Z,2.00
2023-03-10T04:20:06.226Z,2.88
2023-03-10T04:22:34.776Z,2.50
2023-03-10T04:25:01.481Z,1.98
2023-03-10T04:27:28.140Z,2.03
2023-03-10T04:29:55.202Z,1.95
2023-03-10T04:32:22.034Z,1.38
2023-03-10T04:34:48.646Z,1.30
2023-03-10T04:37:16.718Z,1.60
2023-03-10T04:39:43.401Z,1.50
2023-03-10T04:42:09.995Z,1.45
2023-03-10T04:44:36.767Z,1.50
2023-03-10T04:47:05.739Z,1.20
2023-03-10T04:49:32.400Z,2.00
2023-03-10T04:52:00.042Z,1.83
2023-03-10T04:54:27.381Z,2.53
2023-03-10T04:56:54.066Z,2.50
2023-03-10T04:59:21.617Z,3.40
2023-03-10T05:01:48.459Z,3.13
2023-03-10T05:04:15.155Z,2.50
2023-03-10T05:06:42.048Z,2.70
2023-03-10T05:09:22.266Z,2.30
2023-03-10T05:11:49.436Z,1.67
2023-03-10T05:14:17.858Z,2.78
2023-03-10T05:16:46.825Z,2.00
2023-03-10T05:19:13.305Z,1.85
2023-03-10T05:21:39.864Z,1.52
2023-03-10T05:24:06.629Z,1.38
2023-03-10T05:26:34.881Z,1.50
2023-03-10T05:29:02.147Z,1.45
2023-03-10T05:31:38.334Z,1.52
2023-03-10T05:34:10.849Z,1.60
2023-03-10T05:36:37.557Z,1.90
2023-03-10T05:39:06.429Z,2.72
2023-03-10T05:41:37.374Z,1.90
2023-03-10T05:44:04.638Z,1.65
2023-03-10T05:46:33.784Z,2.13
2023-03-10T05:49:00.404Z,1.95
2023-03-10T05:51:27.325Z,2.28
2023-03-10T05:53:54.876Z,2.42
2023-03-10T05:56:26.101Z,2.20
2023-03-10T05:58:57.039Z,2.33
2023-03-10T06:01:28.914Z,2.10
2023-03-10T06:03:55.539Z,1.90
2023-03-10T06:06:22.260Z,1.98
2023-03-10T06:08:48.864Z,2.42
2023-03-10T06:11:15.500Z,2.53
2023-03-10T06:13:42.088Z,2.05
2023-03-10T06:16:08.636Z,2.55
2023-03-10T06:18:35.326Z,2.13
2023-03-10T06:21:07.897Z,1.90
2023-03-10T06:23:34.610Z,2.42
2023-03-10T06:26:02.838Z,2.15
2023-03-10T06:28:33.232Z,2.28
2023-03-10T06:31:01.008Z,2.35
2023-03-10T06:33:28.195Z,2.42
2023-03-10T06:35:54.948Z,2.88
2023-03-10T06:38:22.017Z,2.90
2023-03-10T06:40:49.006Z,3.15
2023-03-10T06:43:16.190Z,2.78
2023-03-10T06:45:44.124Z,3.13
2023-03-10T06:48:11.023Z,2.95
2023-03-10T06:50:43.317Z,3.00
2023-03-10T06:53:10.832Z,2.95
2023-03-10T06:55:39.960Z,3.30
2023-03-10T06:58:06.712Z,3.03
2023-03-10T07:00:35.419Z,3.20
2023-03-10T07:03:02.025Z,3.30
2023-03-10T07:05:28.535Z,3.40
2023-03-10T07:07:55.559Z,3.70
2023-03-10T07:10:22.826Z,3.03
2023-03-10T07:12:55.189Z,2.95
2023-03-10T07:15:22.510Z,3.05
2023-03-10T07:17:49.085Z,4.57
2023-03-10T07:20:15.715Z,2.97
2023-03-10T07:22:42.286Z,4.45
2023-03-10T07:25:09.105Z,3.15
2023-03-10T07:27:35.712Z,4.60
2023-03-10T07:30:02.548Z,4.43
2023-03-10T07:32:29.063Z,3.28
2023-03-10T07:34:55.914Z,2.80
2023-03-10T07:37:22.435Z,3.25
2023-03-10T07:39:49.229Z,2.90
2023-03-10T07:42:15.797Z,3.53
2023-03-10T07:44:42.876Z,2.20
2023-03-10T07:47:09.392Z,3.03
2023-03-10T07:49:36.121Z,3.60
2023-03-10T07:52:02.777Z,2.70
2023-03-10T07:54:29.344Z,2.92
2023-03-10T07:56:55.971Z,2.20
2023-03-10T07:59:22.530Z,3.08
2023-03-10T08:01:49.242Z,2.78
2023-03-10T08:04:17.256Z,1.95
2023-03-10T08:06:44.900Z,2.10
2023-03-10T08:09:11.589Z,2.30
2023-03-10T08:11:38.159Z,2.55
2023-03-10T08:14:04.924Z,2.10
2023-03-10T08:16:31.565Z,1.92
2023-03-10T08:18:58.483Z,2.88
2023-03-10T08:21:25.220Z,2.13
2023-03-10T08:23:51.839Z,2.00
2023-03-10T08:26:19.251Z,2.22
2023-03-10T08:28:47.123Z,2.30
2023-03-10T08:31:15.318Z,1.90
2023-03-10T08:33:43.218Z,1.75
2023-03-10T08:36:12.988Z,2.40
2023-03-10T08:38:39.987Z,2.20
2023-03-10T08:41:17.157Z,2.42
2023-03-10T08:43:44.103Z,2.35
2023-03-10T08:46:11.110Z,2.03
2023-03-10T08:48:37.684Z,2.00
2023-03-10T08:51:05.047Z,1.88
2023-03-10T08:53:32.916Z,1.85
2023-03-10T08:55:59.618Z,2.75
2023-03-10T08:58:26.233Z,2.05
2023-03-10T09:00:52.880Z,2.10
2023-03-10T09:03:20.018Z,2.47
2023-03-10T09:05:46.935Z,4.82
2023-03-10T09:08:13.492Z,2.13
2023-03-10T09:10:40.495Z,2.72
2023-03-10T09:13:14.060Z,2.70
2023-03-10T09:15:41.680Z,2.30
2023-03-10T09:18:12.845Z,2.15
2023-03-10T09:20:40.215Z,2.38
2023-03-10T09:23:07.655Z,2.30
2023-03-10T09:25:34.344Z,2.33
2023-03-10T09:28:00.891Z,2.47
2023-03-10T09:30:27.521Z,2.40
2023-03-10T09:32:55.907Z,2.60
2023-03-10T09:35:23.338Z,2.55
2023-03-10T09:37:50.015Z,2.25
2023-03-10T09:40:18.413Z,1.88
2023-03-10T09:42:48.748Z,1.70
2023-03-10T09:45:27.762Z,1.90
2023-03-10T09:47:57.134Z,1.50
2023-03-10T09:50:29.921Z,1.42
2023-03-10T09:53:02.894Z,1.75
2023-03-10T09:55:33.516Z,2.33
2023-03-10T09:58:02.012Z,2.15
2023-03-10T10:00:35.406Z,2.60
2023-03-10T10:03:09.153Z,2.60
2023-03-10T10:05:37.221Z,3.78
2023-03-10T10:08:11.541Z,2.58
2023-03-10T10:10:38.823Z,2.85
2023-03-10T10:13:12.761Z,2.35
2023-03-10T10:15:41.572Z,2.42
2023-03-10T10:18:20.341Z,2.22
2023-03-10T10:20:51.267Z,2.50
2023-03-10T10:23:20.825Z,2.45
2023-03-10T10:25:49.383Z,2.15
2023-03-10T10:28:22.089Z,2.35
2023-03-10T10:30:48.735Z,2.17
2023-03-10T10:33:15.869Z,2.55
2023-03-10T10:35:58.941Z,1.90
2023-03-10T10:38:28.875Z,2.50
2023-03-10T10:41:05.139Z,2.55
2023-03-10T10:43:43.887Z,3.10
2023-03-10T10:46:10.996Z,3.00
2023-03-10T10:48:42.976Z,2.90
2023-03-10T10:51:36.028Z,3.45
2023-03-10T10:54:05.073Z,2.70
2023-03-10T10:56:31.753Z,3.60
2023-03-10T10:59:18.875Z,3.42
2023-03-10T11:01:47.220Z,2.85
2023-03-10T11:04:15.864Z,2.90
2023-03-10T11:06:44.018Z,2.83
2023-03-10T11:09:18.450Z,2.75
2023-03-10T11:11:53.899Z,2.88
2023-03-10T11:14:29.545Z,2.85
2023-03-10T11:17:07.083Z,3.05
2023-03-10T11:19:37.246Z,2.83
2023-03-10T11:22:05.807Z,3.25
2023-03-10T11:24:43.075Z,2.90
2023-03-10T11:27:29.890Z,3.78
2023-03-10T11:30:02.168Z,2.67
2023-03-10T11:32:46.406Z,2.85
2023-03-10T11:35:17.685Z,3.90
2023-03-10T11:37:47.104Z,3.58
2023-03-10T11:40:38.021Z,4.43
2023-03-10T11:43:13.223Z,5.57
2023-03-10T11:45:45.690Z,7.15
2023-03-10T11:48:25.134Z,6.90
2023-03-10T11:50:52.971Z,7.38
2023-03-10T11:53:28.187Z,7.10
2023-03-10T11:55:56.042Z,6.22
2023-03-10T11:58:41.473Z,6.35
2023-03-10T12:01:09.156Z,5.93
2023-03-10T12:03:55.990Z,5.53
2023-03-10T12:06:32.215Z,4.20
2023-03-10T12:09:00.043Z,3.85
2023-03-10T12:11:27.155Z,3.50
2023-03-10T12:13:57.776Z,3.20
2023-03-10T12:16:25.881Z,2.90
2023-03-10T12:18:53.526Z,2.55
2023-03-10T12:21:20.446Z,2.30
2023-03-10T12:23:48.131Z,2.03
2023-03-10T12:26:17.289Z,1.60
2023-03-10T12:28:43.846Z,1.55
2023-03-10T12:31:29.113Z,1.13
2023-03-10T12:36:31.927Z,1.45
2023-03-10T12:38:59.673Z,1.40
2023-03-10T12:41:26.222Z,1.30
2023-03-10T12:43:54.605Z,1.60
2023-03-10T12:46:23.685Z,1.60
2023-03-10T12:48:53.754Z,1.85
2023-03-10T12:51:23.541Z,1.35
2023-03-10T12:53:58.263Z,1.50
2023-03-10T12:56:39.134Z,1.50
2023-03-10T12:59:13.173Z,1.75
2023-03-10T13:01:55.119Z,1.30
2023-03-10T13:04:23.594Z,1.70
2023-03-10T13:06:50.318Z,1.65
2023-03-10T13:09:38.926Z,1.65
2023-03-10T13:12:41.133Z,1.50
2023-03-10T13:15:19.993Z,2.10
2023-03-10T13:17:46.550Z,2.22
2023-03-10T13:20:19.423Z,2.22
2023-03-10T13:22:52.770Z,1.67
2023-03-10T13:25:19.347Z,1.63
2023-03-10T13:27:45.852Z,2.05
2023-03-10T13:30:12.897Z,1.40
2023-03-10T13:32:39.417Z,1.30
2023-03-10T13:35:14.658Z,1.73
2023-03-10T13:37:41.305Z,1.92
2023-03-10T13:40:09.326Z,2.78
2023-03-10T13:42:43.938Z,3.17
2023-03-10T13:45:20.770Z,3.83
2023-03-10T13:47:47.542Z,2.50
2023-03-10T13:50:15.710Z,2.08
2023-03-10T13:52:52.191Z,2.60
2023-03-10T13:55:18.786Z,2.95
2023-03-10T13:57:46.270Z,4.18
2023-03-10T14:00:16.029Z,3.50
2023-03-10T14:02:45.096Z,4.03
2023-03-10T14:05:30.532Z,3.53
2023-03-10T14:10:23.503Z,3.80
2023-03-10T14:12:51.669Z,3.05
2023-03-10T14:15:23.459Z,2.83
2023-03-10T14:17:49.936Z,3.00
2023-03-10T14:20:27.810Z,2.95
2023-03-10T14:22:54.395Z,2.85
2023-03-10T14:25:22.012Z,3.00
2023-03-10T14:27:52.346Z,2.85
2023-03-10T14:30:20.923Z,3.47
2023-03-10T14:32:47.467Z,2.30
2023-03-10T14:35:15.536Z,2.53
2023-03-10T14:37:42.200Z,1.45
2023-03-10T14:40:10.852Z,1.45
2023-03-10T14:42:39.681Z,1.45
2023-03-10T14:45:08.343Z,1.73
2023-03-10T14:47:35.119Z,3.78
2023-03-10T14:50:02.112Z,2.03
2023-03-10T14:52:28.639Z,3.38
2023-03-10T14:54:55.153Z,2.65
2023-03-10T14:57:24.592Z,1.98
2023-03-10T14:59:51.296Z,1.98
2023-03-10T15:02:20.208Z,1.58
2023-03-10T15:04:46.889Z,1.98
2023-03-10T15:07:15.227Z,1.30
2023-03-10T15:09:41.884Z,1.33
2023-03-10T15:12:08.464Z,2.17
2023-03-10T15:14:35.083Z,1.35
2023-03-10T15:17:04.038Z,1.48
2023-03-10T15:19:31.106Z,1.40
2023-03-10T15:21:57.785Z,1.45
2023-03-10T15:24:24.327Z,1.23
2023-03-10T15:26:50.969Z,1.38
2023-03-10T15:29:18.426Z,1.08
2023-03-10T15:31:45.216Z,1.25
2023-03-10T15:34:11.874Z,1.10
2023-03-10T15:36:38.622Z,1.20
2023-03-10T15:39:05.231Z,1.10
2023-03-10T15:41:35.404Z,1.35
2023-03-10T15:44:01.969Z,1.85
2023-03-10T15:46:28.579Z,1.40
2023-03-10T15:48:55.186Z,1.30
2023-03-10T15:51:23.035Z,1.05
2023-03-10T15:53:49.663Z,1.10
2023-03-10T15:56:16.216Z,2.25
2023-03-10T15:58:42.837Z,1.20
2023-03-10T16:01:13.709Z,1.10
2023-03-10T16:03:40.257Z,1.40
2023-03-10T16:06:09.504Z,1.15
2023-03-10T16:08:39.915Z,0.95
2023-03-10T16:11:10.142Z,1.20
2023-03-10T16:13:36.737Z,1.13
2023-03-10T16:16:07.066Z,1.45
2023-03-10T16:18:34.164Z,0.80
2023-03-10T16:21:01.423Z,1.23
2023-03-10T16:23:28.854Z,0.90
2023-03-10T16:26:05.331Z,0.70
2023-03-10T16:28:31.947Z,0.90
2023-03-10T16:30:58.511Z,1.52
2023-03-10T16:33:25.096Z,1.42
2023-03-10T16:35:51.632Z,1.50
2023-03-10T16:38:18.214Z,1.20
2023-03-10T16:40:51.094Z,0.90
2023-03-10T16:43:17.994Z,1.20
2023-03-10T16:45:48.618Z,1.00
2023-03-10T16:48:15.772Z,1.05
2023-03-10T16:50:42.244Z,1.48
2023-03-10T16:53:09.094Z,1.00
2023-03-10T16:55:35.560Z,1.25
2023-03-10T16:58:02.189Z,1.88
2023-03-10T17:00:28.718Z,1.60
2023-03-10T17:02:56.508Z,1.83
2023-03-10T17:05:23.531Z,1.08
2023-03-10T17:07:56.053Z,1.35
2023-03-10T17:10:23.133Z,1.90
2023-03-10T17:12:49.877Z,1.70
2023-03-10T17:15:16.484Z,1.33
2023-03-10T17:17:43.548Z,2.90
2023-03-10T17:20:10.425Z,1.58
2023-03-10T17:22:38.882Z,1.40
2023-03-10T17:25:06.077Z,2.17
2023-03-10T17:27:32.553Z,2.13
2023-03-10T17:29:59.143Z,1.02
2023-03-10T17:32:25.824Z,1.58
2023-03-10T17:34:53.728Z,1.42
2023-03-10T17:37:20.419Z,1.40
2023-03-10T17:39:48.373Z,1.10
2023-03-10T17:42:14.815Z,1.40
2023-03-10T17:44:41.435Z,1.02
2023-03-10T17:47:07.890Z,1.10
2023-03-10T17:49:34.510Z,1.38
2023-03-10T17:52:01.109Z,1.00
2023-03-10T17:54:27.704Z,1.35
2023-03-10T17:56:54.367Z,1.85
2023-03-10T17:59:21.126Z,1.23
2023-03-10T18:01:48.166Z,1.35
2023-03-10T18:04:14.770Z,1.50
2023-03-10T18:06:41.297Z,1.27
2023-03-10T18:09:09.199Z,1.70
2023-03-10T18:11:35.745Z,1.48
2023-03-10T18:14:03.753Z,2.15
2023-03-10T18:16:32.354Z,1.30
2023-03-10T18:18:59.464Z,1.85
2023-03-10T18:21:27.144Z,2.38
2023-03-10T18:23:53.827Z,1.85
2023-03-10T18:26:26.007Z,1.27
2023-03-10T18:28:52.651Z,1.40
2023-03-10T18:31:20.796Z,1.33
2023-03-10T18:33:48.414Z,1.38
2023-03-10T18:36:17.109Z,1.08
2023-03-10T18:38:45.373Z,1.33
2023-03-10T18:41:12.068Z,1.63
2023-03-10T18:43:38.891Z,1.13
2023-03-10T18:46:06.883Z,1.25
2023-03-10T18:48:33.559Z,1.20
2023-03-10T18:51:00.333Z,1.50
2023-03-10T18:53:27.545Z,1.30
2023-03-10T18:55:54.469Z,1.50
2023-03-10T18:58:21.781Z,1.90
2023-03-10T19:00:48.477Z,1.30
2023-03-10T19:03:15.144Z,0.90
2023-03-10T19:05:41.658Z,1.10
2023-03-10T19:08:08.651Z,1.48
2023-03-10T19:10:35.157Z,1.70
2023-03-10T19:13:01.956Z,1.40
2023-03-10T19:15:28.579Z,1.40
2023-03-10T19:17:55.264Z,1.48
2023-03-10T19:20:21.801Z,0.98
2023-03-10T19:22:52.286Z,2.00
2023-03-10T19:25:19.220Z,0.90
2023-03-10T19:27:46.180Z,1.10
2023-03-10T19:30:16.295Z,1.52
2023-03-10T19:32:46.339Z,1.10
2023-03-10T19:35:13.675Z,1.23
2023-03-10T19:37:43.748Z,2.38
2023-03-10T19:40:17.459Z,1.58
2023-03-10T19:42:44.716Z,1.20
2023-03-10T19:45:15.350Z,1.20
2023-03-10T19:47:42.235Z,1.23
2023-03-10T19:50:10.733Z,1.42
2023-03-10T19:52:39.056Z,1.20
2023-03-10T19:55:09.134Z,1.50
2023-03-10T19:57:36.910Z,0.80
2023-03-10T20:00:05.930Z,1.33
2023-03-10T20:02:32.705Z,1.13
2023-03-10T20:04:59.283Z,1.23
2023-03-10T20:07:25.801Z,1.65
2023-03-10T20:09:52.471Z,1.10
2023-03-10T20:12:19.111Z,1.40
2023-03-10T20:14:45.549Z,1.42
2023-03-10T20:17:12.307Z,0.95
2023-03-10T20:19:40.208Z,1.13
2023-03-10T20:22:06.790Z,1.45
2023-03-10T20:24:33.310Z,1.25
2023-03-10T20:27:03.109Z,0.90
2023-03-10T20:29:29.680Z,0.68
2023-03-10T20:31:56.266Z,0.90
2023-03-10T20:34:25.731Z,1.50
2023-03-10T20:36:52.253Z,1.88
2023-03-10T20:39:18.982Z,1.60
2023-03-10T20:41:45.983Z,1.27
2023-03-10T20:44:14.285Z,1.45
2023-03-10T20:46:44.215Z,1.40
2023-03-10T20:49:11.722Z,1.10
2023-03-10T20:51:38.902Z,1.13
2023-03-10T20:54:05.637Z,1.33
2023-03-10T20:56:33.124Z,1.15
2023-03-10T20:59:01.655Z,1.17
2023-03-10T21:01:28.875Z,1.40
2023-03-10T21:03:56.489Z,1.02
2023-03-10T21:06:23.741Z,1.00
2023-03-10T21:08:50.673Z,0.80
2023-03-10T21:11:17.595Z,1.10
2023-03-10T21:13:44.629Z,2.03
2023-03-10T21:16:11.233Z,1.38
2023-03-10T21:18:38.314Z,1.45
2023-03-10T21:21:09.726Z,2.70
2023-03-10T21:23:40.772Z,1.95
2023-03-10T21:26:11.309Z,1.40
2023-03-10T21:28:37.983Z,1.40
2023-03-10T21:31:04.721Z,1.20
2023-03-10T21:33:31.442Z,1.33
2023-03-10T21:35:58.014Z,1.25
2023-03-10T21:38:24.697Z,1.17
2023-03-10T21:40:51.222Z,1.58
2023-03-10T21:43:18.430Z,1.08
2023-03-10T21:45:45.208Z,1.38
2023-03-10T21:48:11.721Z,1.15
2023-03-10T21:50:38.433Z,1.00
2023-03-10T21:53:05.641Z,1.25
2023-03-10T21:55:34.506Z,0.95
2023-03-10T21:58:01.270Z,1.45
2023-03-10T22:00:27.885Z,1.20
2023-03-10T22:02:54.542Z,1.13
2023-03-10T22:05:21.183Z,1.25
2023-03-10T22:07:47.906Z,1.48
2023-03-10T22:10:14.759Z,1.15
2023-03-10T22:12:41.496Z,1.10
2023-03-10T22:15:09.091Z,1.50
2023-03-10T22:17:35.725Z,1.38
2023-03-10T22:20:02.443Z,1.80
2023-03-10T22:22:29.280Z,1.40
2023-03-10T22:24:55.824Z,1.52
2023-03-10T22:27:22.390Z,1.00
2023-03-10T22:29:48.974Z,2.35
2023-03-10T22:32:15.878Z,1.10
2023-03-10T22:34:42.384Z,0.90
2023-03-10T22:37:10.320Z,1.10
2023-03-10T22:39:37.223Z,1.25
2023-03-10T22:42:04.875Z,1.25
2023-03-10T22:44:37.830Z,1.30
2023-03-10T22:47:05.001Z,1.33
2023-03-10T22:49:31.849Z,1.00
2023-03-10T22:51:58.651Z,0.90
2023-03-10T22:54:25.360Z,0.98
2023-03-10T22:56:52.011Z,0.90
2023-03-10T22:59:18.457Z,0.90
2023-03-10T23:01:45.073Z,1.05
2023-03-10T23:04:11.585Z,1.00
2023-03-10T23:06:38.109Z,1.60
2023-03-10T23:09:05.562Z,0.73
2023-03-10T23:11:32.207Z,1.13
2023-03-10T23:14:01.889Z,1.20
2023-03-10T23:16:28.507Z,1.33
2023-03-10T23:18:55.060Z,1.17
2023-03-10T23:21:21.724Z,1.33
2023-03-10T23:23:48.813Z,1.08
2023-03-10T23:26:15.741Z,0.95
2023-03-10T23:28:42.400Z,1.13
2023-03-10T23:31:10.249Z,1.00
2023-03-10T23:33:36.727Z,1.00
2023-03-10T23:36:03.487Z,1.27
2023-03-10T23:38:30.095Z,1.25
2023-03-10T23:40:56.918Z,1.67
2023-03-10T23:43:23.873Z,1.02
2023-03-10T23:45:50.607Z,0.90
2023-03-10T23:48:17.885Z,1.25
2023-03-10T23:50:45.453Z,1.00
2023-03-10T23:53:12.969Z,0.98
2023-03-10T23:55:41.520Z,1.67
2023-03-10T23:58:08.536Z,1.20
